createdAt,value
2023-04-07T00:18:15.171Z,6.71
2023-04-07T00:24:43.942Z,6.56
2023-04-07T00:30:50.882Z,6.74
2023-04-07T00:42:55.260Z,6.54
2023-04-07T00:59:57.761Z,6.52
2023-04-07T01:06:05.321Z,6.46
2023-04-07T01:24:02.204Z,6.30
2023-04-07T01:29:16.828Z,6.25
2023-04-07T01:34:14.219Z,6.14
2023-04-07T01:39:11.509Z,6.17
2023-04-07T01:44:08.757Z,6.10
2023-04-07T01:49:05.515Z,6.08
2023-04-07T01:54:02.114Z,6.05
2023-04-07T01:59:01.038Z,6.01
2023-04-07T02:04:14.159Z,5.97
2023-04-07T02:09:11.800Z,5.92
2023-04-07T02:14:09.103Z,5.91
2023-04-07T02:19:08.332Z,5.83
2023-04-07T02:24:08.241Z,5.76
2023-04-07T02:29:04.919Z,5.77
2023-04-07T02:34:01.433Z,5.80
2023-04-07T02:46:33.876Z,5.72
2023-04-07T03:03:45.163Z,5.61
2023-04-07T03:08:42.178Z,5.57
2023-04-07T03:13:38.671Z,5.55
2023-04-07T03:18:36.098Z,5.52
2023-04-07T03:23:32.559Z,5.49
2023-04-07T04:40:53.171Z,5.01
2023-04-07T05:11:11.700Z,5.12
2023-04-07T05:36:48.104Z,5.25
2023-04-07T05:47:53.514Z,5.33
2023-04-07T05:59:57.968Z,6.07
2023-04-07T06:17:27.856Z,6.21
2023-04-07T06:29:10.323Z,6.02
2023-04-07T07:10:28.015Z,8.05
2023-04-07T07:16:25.208Z,8.28
2023-04-07T07:22:00.248Z,8.33
2023-04-07T07:40:43.216Z,8.30
2023-04-07T07:46:01.336Z,8.39
2023-04-07T07:58:35.138Z,8.36
2023-04-07T08:10:37.156Z,8.45
2023-04-07T09:00:15.921Z,9.25
2023-04-07T09:05:14.579Z,9.40
2023-04-07T09:10:11.157Z,9.55
2023-04-07T09:15:08.271Z,9.64
2023-04-07T09:33:49.954Z,9.76
2023-04-07T10:14:46.777Z,10.21
2023-04-07T10:19:43.250Z,10.18
2023-04-07T10:24:57.464Z,10.17
2023-04-07T10:29:54.252Z,10.24
2023-04-07T10:34:53.327Z,10.28
2023-04-07T10:40:11.273Z,10.34
2023-04-07T10:45:09.704Z,10.36
2023-04-07T10:50:26.504Z,10.40
2023-04-07T10:55:34.154Z,10.40
2023-04-07T11:00:30.637Z,10.42
2023-04-07T11:05:27.075Z,10.50
2023-04-07T11:10:23.687Z,10.56
2023-04-07T11:15:22.069Z,10.63
2023-04-07T11:20:18.527Z,10.66
2023-04-07T11:25:21.894Z,10.63
2023-04-07T11:30:18.370Z,10.59
2023-04-07T11:35:16.170Z,10.48
2023-04-07T11:40:14.544Z,10.43
2023-04-07T11:45:18.371Z,10.41
2023-04-07T11:50:14.838Z,10.41
2023-04-07T11:55:26.874Z,10.43
2023-04-07T12:00:23.592Z,10.41
2023-04-07T12:05:20.370Z,10.40
2023-04-07T12:10:20.412Z,10.39
2023-04-07T12:15:16.989Z,10.40
2023-04-07T12:20:14.359Z,10.38
2023-04-07T12:25:10.848Z,10.43
2023-04-07T12:30:08.011Z,10.46
2023-04-07T12:35:05.284Z,10.49
2023-04-07T12:40:01.754Z,10.51
2023-04-07T12:44:58.236Z,10.57
2023-04-07T12:49:54.665Z,10.57
2023-04-07T12:54:51.146Z,10.63
2023-04-07T12:59:48.125Z,10.69
2023-04-07T13:04:46.559Z,10.68
2023-04-07T13:09:46.225Z,10.71
2023-04-07T13:14:52.909Z,10.75
2023-04-07T13:19:56.215Z,10.76
2023-04-07T13:24:52.714Z,10.83
2023-04-07T13:29:49.253Z,10.96
2023-04-07T13:34:46.506Z,11.08
2023-04-07T13:39:42.945Z,11.10
2023-04-07T13:44:40.067Z,11.10
2023-04-07T13:49:36.806Z,11.15
2023-04-07T13:54:33.699Z,11.13
2023-04-07T13:59:30.595Z,11.19
2023-04-07T14:04:27.353Z,11.19
2023-04-07T14:09:23.700Z,11.25
2023-04-07T14:14:20.141Z,11.29
2023-04-07T14:19:16.596Z,11.35
2023-04-07T14:24:13.075Z,11.35
2023-04-07T14:29:11.037Z,11.39
2023-04-07T15:24:07.079Z,9.86
2023-04-07T15:29:03.543Z,9.80
2023-04-07T15:34:00.439Z,9.79
2023-04-07T15:45:38.053Z,9.52
2023-04-07T16:03:51.783Z,9.02
2023-04-07T16:32:57.512Z,8.85
2023-04-07T16:57:40.964Z,8.42
2023-04-07T17:09:08.151Z,8.45
2023-04-07T17:45:10.836Z,8.10
2023-04-07T17:51:10.709Z,7.83
2023-04-07T20:13:49.432Z,7.19
2023-04-07T20:24:16.248Z,7.15
2023-04-07T20:43:00.445Z,7.18
2023-04-07T20:59:29.043Z,7.14
2023-04-07T21:29:09.094Z,7.21
2023-04-07T21:34:05.524Z,7.22
2023-04-07T22:04:22.743Z,7.15
2023-04-07T22:10:34.306Z,7.33
2023-04-07T22:33:30.422Z,7.32
2023-04-07T22:43:52.385Z,7.35
2023-04-07T22:48:49.318Z,7.36
2023-04-07T22:53:48.475Z,7.34
2023-04-07T22:58:44.905Z,7.33
2023-04-07T23:03:41.462Z,7.35
2023-04-07T23:19:22.438Z,7.30
2023-04-07T23:24:19.204Z,7.24
2023-04-07T23:48:52.655Z,7.24
